Time;durP1;ratioP1;P1;durP2;ratioP2;P2;SDS_P1;SDS_P2;PMS_P1;PMS_P2;Temp;Humidity;BMP_temperature;BMP_pressure;BME280_temperature;BME280_humidity;BME280_pressure;Samples;Min_cycle;Max_cycle;Signal;HPM_P1;HPM_P2
2022/03/27 00:00:25;;;;;;;0.25;0.25;;;;;;;8.62;94.04;102470.94;4977995;28;20125;-64
2022/03/27 00:02:51;;;;;;;0.30;0.30;;;;;;;8.59;94.50;102474.22;4980615;28;20064;-64
2022/03/27 00:05:17;;;;;;;0.30;0.30;;;;;;;8.56;94.49;102478.28;4979526;28;20077;-64
2022/03/27 00:07:42;;;;;;;0.30;0.30;;;;;;;8.51;94.40;102469.53;4992029;28;20482;-64
2022/03/27 00:10:08;;;;;;;0.30;0.30;;;;;;;8.48;94.40;102476.28;4977191;28;20049;-64
2022/03/27 00:12:33;;;;;;;0.93;0.43;;;;;;;8.41;94.68;102478.56;4989411;28;20072;-64
2022/03/27 00:15:01;;;;;;;0.30;0.30;;;;;;;8.46;94.29;102473.09;4985484;28;20057;-64
2022/03/27 00:17:29;;;;;;;0.52;0.52;;;;;;;8.34;94.83;102475.47;4989573;28;20022;-64
2022/03/27 00:19:56;;;;;;;0.40;0.40;;;;;;;8.30;95.22;102471.78;4992783;28;20105;-65
2022/03/27 00:22:22;;;;;;;0.20;0.20;;;;;;;8.35;94.08;102481.63;4992284;28;20144;-64
2022/03/27 00:24:48;;;;;;;0.30;0.30;;;;;;;8.32;93.17;102480.34;4989731;28;20041;-64
2022/03/27 00:27:15;;;;;;;0.40;0.40;;;;;;;8.28;93.50;102479.34;4972660;28;20540;-64
2022/03/27 00:29:41;;;;;;;0.25;0.25;;;;;;;8.23;93.95;102468.63;4994127;28;20388;-64
2022/03/27 00:32:07;;;;;;;0.47;0.45;;;;;;;8.16;93.93;102465.53;4991000;28;20042;-64
2022/03/27 00:34:32;;;;;;;0.20;0.20;;;;;;;8.12;93.20;102465.34;4993339;28;20093;-64
2022/03/27 00:37:00;;;;;;;0.30;0.30;;;;;;;8.08;93.76;102463.53;4992948;28;20087;-64
2022/03/27 00:39:26;;;;;;;0.20;0.20;;;;;;;8.03;93.66;102466.28;4975868;28;20072;-64
2022/03/27 00:41:51;;;;;;;0.22;0.22;;;;;;;7.98;94.60;102474.41;4989864;28;20065;-65
2022/03/27 00:44:17;;;;;;;0.17;0.17;;;;;;;8.06;93.50;102460.34;4992572;28;20104;-64
2022/03/27 00:46:43;;;;;;;0.30;0.30;;;;;;;8.07;93.62;102461.94;4975162;28;20077;-64
2022/03/27 00:49:09;;;;;;;0.20;0.20;;;;;;;7.97;93.22;102470.16;4990540;28;20637;-65
2022/03/27 00:51:35;;;;;;;0.28;0.28;;;;;;;7.98;93.83;102466.34;4985193;28;20113;-65
2022/03/27 00:54:00;;;;;;;0.10;0.10;;;;;;;7.95;93.96;102461.59;4992969;28;20393;-64
2022/03/27 00:56:26;;;;;;;0.20;0.20;;;;;;;7.99;93.66;102462.59;5007316;28;20054;-64
2022/03/27 00:58:51;;;;;;;0.43;0.43;;;;;;;7.86;94.13;102455.28;4991578;28;20061;-65
2022/03/27 01:01:23;;;;;;;0.10;0.10;;;;;;;7.81;93.71;102450.81;4991171;28;20468;-64
2022/03/27 01:03:53;;;;;;;0.10;0.10;;;;;;;7.81;93.80;102455.38;4973062;28;20034;-64
2022/03/27 01:06:33;;;;;;;0.40;0.40;;;;;;;7.81;93.74;102464.22;4991788;28;20041;-64
2022/03/27 01:11:44;;;;;;;2.17;1.58;;;;;;;7.72;93.32;102452.56;4991687;28;20038;-64
2022/03/27 01:14:10;;;;;;;0.55;0.35;;;;;;;7.75;93.81;102453.84;4972774;28;20520;-64
2022/03/27 01:16:38;;;;;;;0.80;0.40;;;;;;;7.63;94.29;102451.59;4992198;28;20030;-64
2022/03/27 01:19:04;;;;;;;0.60;0.40;;;;;;;7.66;94.34;102448.34;4993400;28;20039;-64
2022/03/27 01:21:30;;;;;;;0.20;0.20;;;;;;;7.63;94.35;102448.13;4984100;28;20043;-65
2022/03/27 01:23:56;;;;;;;0.22;0.22;;;;;;;7.60;94.26;102451.38;4982875;28;20038;-64
2022/03/27 01:26:23;;;;;;;0.15;0.15;;;;;;;7.65;93.51;102454.78;4980372;28;20073;-64
2022/03/27 01:28:49;;;;;;;0.50;0.50;;;;;;;7.55;94.16;102446.13;4991262;28;20030;-65
2022/03/27 01:31:15;;;;;;;0.20;0.20;;;;;;;7.59;93.72;102447.13;4986523;28;20113;-65
2022/03/27 01:33:40;;;;;;;0.20;0.20;;;;;;;7.53;93.85;102451.75;4992535;28;20121;-65
2022/03/27 01:36:06;;;;;;;0.20;0.20;;;;;;;7.52;93.36;102452.84;4991764;28;20042;-64
2022/03/27 01:38:31;;;;;;;0.13;0.13;;;;;;;7.51;93.70;102447.78;4991773;28;20034;-64
2022/03/27 01:40:57;;;;;;;1.55;0.50;;;;;;;7.44;94.16;102447.31;4987480;28;20108;-64
2022/03/27 01:43:22;;;;;;;0.32;0.32;;;;;;;7.38;94.40;102440.44;4972170;28;20039;-64
2022/03/27 01:45:48;;;;;;;0.30;0.30;;;;;;;7.29;94.41;102446.47;4976490;28;20038;-64
2022/03/27 01:48:13;;;;;;;0.70;0.70;;;;;;;7.30;94.51;102456.06;4990059;28;20030;-64
2022/03/27 01:50:39;;;;;;;0.10;0.10;;;;;;;7.28;95.13;102442.16;4983491;28;20529;-64
2022/03/27 01:53:04;;;;;;;0.55;0.55;;;;;;;7.34;95.35;102439.44;4973577;28;20521;-64
2022/03/27 01:55:30;;;;;;;0.75;0.43;;;;;;;7.28;94.92;102449.41;4991278;28;20049;-64
2022/03/27 01:57:55;;;;;;;0.17;0.17;;;;;;;7.28;94.23;102454.75;4988816;28;20374;-64
2022/03/27 02:00:20;;;;;;;0.20;0.20;;;;;;;7.28;93.72;102446.72;4989409;28;20328;-64
2022/03/27 02:02:46;;;;;;;0.17;0.17;;;;;;;7.28;94.06;102447.53;4988812;28;20251;-64
2022/03/27 02:05:11;;;;;;;0.50;0.43;;;;;;;7.21;94.38;102457.00;4991027;28;20046;-65
2022/03/27 02:07:39;;;;;;;1.23;0.93;;;;;;;7.21;94.45;102465.03;4981770;28;20358;-64
2022/03/27 02:10:05;;;;;;;0.20;0.20;;;;;;;7.22;93.45;102461.25;4972864;28;20072;-64
2022/03/27 02:12:34;;;;;;;0.73;0.50;;;;;;;7.15;93.72;102460.81;4973748;28;20042;-64
2022/03/27 02:15:07;;;;;;;0.47;0.43;;;;;;;7.16;94.52;102459.75;4998683;28;20045;-65
2022/03/27 02:17:36;;;;;;;0.30;0.30;;;;;;;7.05;93.59;102464.41;4991487;28;20066;-64
2022/03/27 02:20:02;;;;;;;0.20;0.20;;;;;;;7.04;93.88;102464.72;4972556;28;20418;-65
2022/03/27 02:22:28;;;;;;;0.57;0.57;;;;;;;7.01;93.71;102466.06;4982421;28;20038;-64
2022/03/27 02:24:53;;;;;;;0.30;0.30;;;;;;;6.94;94.34;102454.91;4991438;28;20073;-64
2022/03/27 02:27:19;;;;;;;0.65;0.65;;;;;;;6.94;95.47;102460.28;4990074;28;20050;-65
2022/03/27 02:29:44;;;;;;;0.20;0.20;;;;;;;6.93;95.03;102466.69;4991979;28;20045;-64
2022/03/27 02:32:10;;;;;;;3.30;0.40;;;;;;;6.91;95.32;102468.88;4986156;28;20045;-64
2022/03/27 02:34:36;;;;;;;1.75;0.38;;;;;;;6.92;95.37;102456.28;4991820;28;20085;-64
2022/03/27 02:37:02;;;;;;;0.10;0.10;;;;;;;6.95;94.71;102461.84;4985462;28;20022;-64
2022/03/27 02:39:27;;;;;;;0.25;0.25;;;;;;;6.95;94.22;102453.81;4974118;28;20038;-64
2022/03/27 02:41:53;;;;;;;0.25;0.25;;;;;;;6.81;94.69;102462.84;4979658;28;20157;-65
2022/03/27 02:44:19;;;;;;;0.43;0.43;;;;;;;6.70;95.33;102464.81;4986439;28;20026;-64
2022/03/27 02:46:45;;;;;;;0.38;0.38;;;;;;;6.78;94.82;102461.53;4990954;28;20500;-64
2022/03/27 02:49:10;;;;;;;0.80;0.47;;;;;;;6.78;95.05;102450.81;4989935;28;20023;-64
2022/03/27 02:51:36;;;;;;;0.60;0.60;;;;;;;6.75;95.10;102467.47;4975792;28;20047;-64
2022/03/27 02:54:04;;;;;;;0.60;0.60;;;;;;;6.79;94.70;102457.78;4974245;28;20030;-65
2022/03/27 02:56:29;;;;;;;0.17;0.17;;;;;;;6.81;94.90;102450.25;4990770;28;20038;-65
2022/03/27 02:58:55;;;;;;;0.70;0.70;;;;;;;6.66;94.10;102453.06;4979439;28;20063;-65
2022/03/27 03:01:20;;;;;;;0.10;0.10;;;;;;;6.53;95.30;102456.44;4985328;28;20037;-64
2022/03/27 03:03:46;;;;;;;0.30;0.30;;;;;;;6.60;94.89;102456.88;4989013;28;20049;-65
2022/03/27 03:06:11;;;;;;;0.20;0.20;;;;;;;6.64;95.14;102446.44;4990361;28;20030;-64
2022/03/27 03:08:38;;;;;;;0.30;0.30;;;;;;;6.61;94.54;102450.47;4987552;28;20227;-64
2022/03/27 03:11:04;;;;;;;0.20;0.20;;;;;;;6.60;94.78;102454.19;4982628;28;20133;-65
2022/03/27 03:13:29;;;;;;;0.20;0.20;;;;;;;6.63;94.06;102447.50;4984459;28;20118;-65
2022/03/27 03:15:55;;;;;;;0.65;0.25;;;;;;;6.60;93.76;102448.84;4988280;28;20409;-65
2022/03/27 03:18:21;;;;;;;0.60;0.60;;;;;;;6.58;94.26;102450.25;4984993;28;20062;-65
2022/03/27 03:20:47;;;;;;;0.30;0.30;;;;;;;6.58;94.96;102448.34;4988732;28;20111;-65
2022/03/27 03:23:12;;;;;;;0.32;0.32;;;;;;;6.51;94.88;102439.84;4989362;28;20049;-64
2022/03/27 03:25:39;;;;;;;0.45;0.45;;;;;;;6.50;94.87;102432.91;4991158;28;20038;-64
2022/03/27 03:28:05;;;;;;;1.45;1.35;;;;;;;6.47;94.61;102438.81;4970325;28;20486;-64
2022/03/27 03:30:30;;;;;;;0.25;0.25;;;;;;;6.48;94.56;102437.75;4984446;28;20063;-64
2022/03/27 03:32:56;;;;;;;0.25;0.25;;;;;;;6.49;93.50;102436.66;4989506;28;20131;-64
2022/03/27 03:35:21;;;;;;;0.40;0.40;;;;;;;6.39;94.11;102416.16;4988547;28;20042;-65
2022/03/27 03:37:47;;;;;;;0.22;0.22;;;;;;;6.36;94.41;102421.28;4984491;28;20053;-65
2022/03/27 03:40:14;;;;;;;0.38;0.38;;;;;;;6.32;94.25;102414.91;4970250;28;20041;-65
2022/03/27 03:42:40;;;;;;;0.13;0.13;;;;;;;6.36;93.84;102415.94;4990028;28;20405;-64
2022/03/27 03:45:06;;;;;;;0.20;0.20;;;;;;;6.34;94.61;102421.56;4978587;28;20034;-64
2022/03/27 03:47:31;;;;;;;0.60;0.60;;;;;;;6.33;94.17;102416.47;4985004;28;20112;-65
2022/03/27 03:49:57;;;;;;;0.30;0.30;;;;;;;6.38;94.19;102413.78;4993106;28;20042;-65
2022/03/27 03:52:22;;;;;;;0.65;0.65;;;;;;;6.29;94.06;102413.56;4985220;28;20093;-64
2022/03/27 03:54:48;;;;;;;0.30;0.30;;;;;;;6.30;93.80;102417.06;4994077;28;20034;-64
2022/03/27 03:57:14;;;;;;;0.13;0.13;;;;;;;6.19;94.27;102421.69;4993069;28;20031;-64
2022/03/27 03:59:39;;;;;;;0.15;0.15;;;;;;;6.13;94.50;102427.38;4993494;28;20491;-64
2022/03/27 04:02:06;;;;;;;1.70;0.82;;;;;;;6.10;95.14;102423.38;4987350;28;20096;-64
2022/03/27 04:04:33;;;;;;;0.20;0.20;;;;;;;6.10;94.77;102418.03;4987474;28;20034;-65
2022/03/27 04:06:59;;;;;;;0.13;0.13;;;;;;;6.06;95.64;102416.19;4974037;28;20043;-65
2022/03/27 04:09:26;;;;;;;0.32;0.32;;;;;;;5.94;95.32;102413.88;4978793;28;20034;-64
2022/03/27 04:11:51;;;;;;;0.47;0.47;;;;;;;5.96;94.77;102438.47;4975031;28;20039;-64
2022/03/27 04:14:17;;;;;;;0.50;0.45;;;;;;;5.96;94.97;102432.34;4980996;28;20067;-64
2022/03/27 04:16:43;;;;;;;0.17;0.17;;;;;;;5.96;95.60;102435.00;4978063;28;20034;-64
2022/03/27 04:19:08;;;;;;;0.17;0.17;;;;;;;6.02;94.90;102434.69;4980665;28;20368;-65
2022/03/27 04:21:34;;;;;;;10.02;0.47;;;;;;;6.02;95.02;102431.22;4975878;28;20037;-64
2022/03/27 04:23:59;;;;;;;0.15;0.15;;;;;;;6.01;95.08;102437.63;4975776;28;20034;-64
2022/03/27 04:26:24;;;;;;;1.35;0.50;;;;;;;6.01;95.13;102432.28;4978933;28;20026;-64
2022/03/27 04:28:50;;;;;;;0.28;0.22;;;;;;;6.01;94.98;102438.44;4982127;28;20031;-64
2022/03/27 04:31:15;;;;;;;0.30;0.30;;;;;;;6.02;95.73;102436.56;4982193;28;20105;-64
2022/03/27 04:33:41;;;;;;;0.20;0.20;;;;;;;6.05;95.45;102441.34;4969329;28;20100;-65
2022/03/27 04:36:08;;;;;;;0.10;0.10;;;;;;;6.04;94.76;102447.78;4981263;28;20030;-64
2022/03/27 04:38:34;;;;;;;0.20;0.20;;;;;;;6.00;95.18;102439.50;4977074;28;20074;-65
2022/03/27 04:40:59;;;;;;;1.45;0.32;;;;;;;5.98;95.86;102446.22;4979002;28;20124;-65
2022/03/27 04:43:25;;;;;;;0.65;0.60;;;;;;;5.99;96.28;102456.63;4977899;28;20081;-65
2022/03/27 04:45:51;;;;;;;0.17;0.17;;;;;;;5.98;96.82;102456.91;4976153;28;20045;-64
2022/03/27 04:48:17;;;;;;;0.20;0.20;;;;;;;6.02;97.63;102453.38;5006125;28;20405;-65
2022/03/27 04:50:44;;;;;;;0.20;0.20;;;;;;;6.04;97.27;102448.56;4992582;28;20037;-65
2022/03/27 04:53:10;;;;;;;0.68;0.60;;;;;;;6.02;97.72;102445.38;4990301;28;20481;-64
2022/03/27 04:55:35;;;;;;;0.63;0.30;;;;;;;6.07;97.85;102441.88;4992231;28;20190;-65
2022/03/27 04:58:01;;;;;;;0.10;0.10;;;;;;;6.05;97.65;102439.47;4992557;28;20035;-65
2022/03/27 05:00:26;;;;;;;0.22;0.22;;;;;;;6.07;97.91;102441.88;4987767;28;21995;-65
2022/03/27 05:02:52;;;;;;;0.43;0.43;;;;;;;6.07;97.92;102439.19;4991269;28;20104;-65
2022/03/27 05:05:17;;;;;;;0.38;0.38;;;;;;;6.04;97.72;102443.22;4992717;28;20073;-65
2022/03/27 05:07:44;;;;;;;0.50;0.50;;;;;;;6.04;97.91;102435.19;4992212;28;20383;-64
2022/03/27 05:10:12;;;;;;;0.30;0.30;;;;;;;6.07;98.35;102445.34;4990870;28;20033;-64
2022/03/27 05:12:39;;;;;;;0.10;0.10;;;;;;;6.12;97.54;102447.16;4992146;28;20561;-64
2022/03/27 05:15:05;;;;;;;0.95;0.75;;;;;;;6.04;97.71;102458.47;4982621;28;20374;-64
2022/03/27 05:17:31;;;;;;;0.73;0.73;;;;;;;5.99;98.59;102458.50;4991861;28;20019;-64
2022/03/27 05:19:56;;;;;;;0.10;0.10;;;;;;;6.01;98.76;102454.47;4992884;28;20370;-65
2022/03/27 05:22:22;;;;;;;0.70;0.70;;;;;;;6.14;99.02;102463.72;4992664;28;20057;-65
2022/03/27 05:24:47;;;;;;;0.40;0.40;;;;;;;6.12;98.61;102460.53;4979231;28;20045;-64
2022/03/27 05:27:17;;;;;;;0.17;0.17;;;;;;;6.11;98.51;102454.41;4978865;28;20096;-64
2022/03/27 05:29:42;;;;;;;0.30;0.30;;;;;;;6.11;98.70;102454.41;4969888;28;20090;-65
2022/03/27 05:32:08;;;;;;;0.10;0.10;;;;;;;6.14;98.95;102461.84;4982365;28;20031;-65
2022/03/27 05:34:34;;;;;;;0.32;0.32;;;;;;;6.12;99.04;102463.22;4974238;28;20042;-65
2022/03/27 05:36:59;;;;;;;0.40;0.28;;;;;;;6.10;99.31;102454.66;4975380;28;21323;-65
2022/03/27 05:39:24;;;;;;;0.40;0.40;;;;;;;6.15;98.62;102458.13;4982147;28;20489;-65
2022/03/27 05:41:50;;;;;;;0.30;0.30;;;;;;;6.16;99.18;102464.25;4979290;28;20038;-65
2022/03/27 05:44:15;;;;;;;0.40;0.40;;;;;;;6.14;99.00;102471.75;4978605;28;20089;-65
2022/03/27 05:46:41;;;;;;;0.52;0.52;;;;;;;6.13;99.54;102468.28;4979638;28;20034;-64
2022/03/27 05:49:06;;;;;;;0.30;0.30;;;;;;;6.14;99.17;102469.06;4976066;28;20074;-64
2022/03/27 05:51:31;;;;;;;0.30;0.30;;;;;;;6.15;99.86;102460.78;4977074;28;20069;-65
2022/03/27 05:53:57;;;;;;;1.20;0.75;;;;;;;6.18;99.56;102473.59;4972718;28;20045;-65
2022/03/27 05:56:23;;;;;;;0.85;0.63;;;;;;;6.19;99.53;102467.16;4974450;28;20103;-64
2022/03/27 05:58:48;;;;;;;0.25;0.22;;;;;;;6.23;98.80;102470.09;4972265;28;20062;-65
2022/03/27 06:01:14;;;;;;;0.10;0.10;;;;;;;6.27;99.41;102471.13;4971038;28;20287;-65
2022/03/27 06:03:40;;;;;;;1.25;0.73;;;;;;;6.29;99.24;102463.63;4982622;28;20042;-64
2022/03/27 06:06:06;;;;;;;1.67;1.10;;;;;;;6.29;99.68;102452.91;4977791;28;20037;-65
2022/03/27 06:08:31;;;;;;;0.40;0.40;;;;;;;6.33;99.69;102462.75;4971939;28;20406;-64
2022/03/27 06:10:56;;;;;;;1.08;0.47;;;;;;;6.34;99.87;102469.72;4978551;28;20049;-65
2022/03/27 06:13:22;;;;;;;0.50;0.50;;;;;;;6.36;100.00;102478.28;4985831;28;20036;-65
2022/03/27 06:15:48;;;;;;;0.10;0.10;;;;;;;6.42;99.75;102470.19;4985507;28;20087;-65
2022/03/27 06:18:13;;;;;;;0.30;0.30;;;;;;;6.48;99.57;102472.53;4991072;28;20649;-63
2022/03/27 06:20:40;;;;;;;0.20;0.20;;;;;;;6.56;99.95;102479.16;4990347;28;20041;-64
2022/03/27 06:23:06;;;;;;;1.08;0.60;;;;;;;6.56;99.46;102479.16;4982869;28;20060;-69
2022/03/27 06:25:33;;;;;;;1.35;1.10;;;;;;;6.62;99.49;102480.72;4983174;28;20049;-67
2022/03/27 06:27:59;;;;;;;0.73;0.50;;;;;;;6.56;99.73;102481.84;4989899;28;20117;-65
2022/03/27 06:30:27;;;;;;;0.40;0.40;;;;;;;6.55;100.00;102481.03;4989670;28;20113;-65
2022/03/27 06:32:54;;;;;;;1.60;0.85;;;;;;;6.65;100.00;102477.44;4988809;28;20034;-65
2022/03/27 06:35:22;;;;;;;1.02;1.02;;;;;;;6.67;100.00;102470.75;4990432;28;20055;-64
2022/03/27 06:37:48;;;;;;;0.43;0.43;;;;;;;6.71;100.00;102476.31;4967397;28;20106;-64
2022/03/27 06:40:14;;;;;;;0.20;0.20;;;;;;;6.75;100.00;102478.16;4975901;28;20712;-66
2022/03/27 06:42:42;;;;;;;0.25;0.25;;;;;;;6.83;100.00;102474.84;4979968;28;20046;-63
2022/03/27 06:45:10;;;;;;;0.20;0.20;;;;;;;6.86;100.00;102485.00;4970618;28;20402;-64
2022/03/27 06:47:36;;;;;;;0.20;0.20;;;;;;;6.83;100.00;102490.91;4972748;28;20399;-70
2022/03/27 06:50:04;;;;;;;0.75;0.75;;;;;;;6.96;100.00;102490.25;4973778;28;20041;-64
2022/03/27 06:52:31;;;;;;;0.22;0.22;;;;;;;7.24;99.43;102486.69;4972283;28;20097;-67
2022/03/27 06:54:57;;;;;;;0.60;0.60;;;;;;;7.30;99.15;102493.59;4973017;28;20100;-65
2022/03/27 06:57:23;;;;;;;0.73;0.68;;;;;;;7.23;100.00;102489.66;4944194;28;1093868;-65
2022/03/27 07:05:18;;;;;;;0.47;0.47;;;;;;;7.47;100.00;102495.78;4987169;28;20169;-66
2022/03/27 07:07:44;;;;;;;0.77;0.77;;;;;;;7.44;100.00;102500.91;4988308;28;20532;-67
2022/03/27 07:10:11;;;;;;;2.22;1.25;;;;;;;7.48;100.00;102508.09;4988518;28;20125;-65
2022/03/27 07:12:40;;;;;;;0.68;0.68;;;;;;;7.61;100.00;102511.94;4972363;28;20042;-64
2022/03/27 07:15:06;;;;;;;1.75;0.85;;;;;;;7.84;100.00;102516.47;4980186;28;20092;-66
2022/03/27 07:17:32;;;;;;;0.65;0.60;;;;;;;7.70;100.00;102512.91;4988909;28;20031;-66
2022/03/27 07:19:57;;;;;;;0.30;0.30;;;;;;;7.63;100.00;102526.66;4985636;28;20045;-64
2022/03/27 07:22:22;;;;;;;1.25;1.05;;;;;;;7.62;100.00;102524.28;4990080;28;20033;-66
2022/03/27 07:24:48;;;;;;;0.68;0.68;;;;;;;7.65;100.00;102521.81;4987104;28;20042;-66
2022/03/27 07:27:14;;;;;;;0.80;0.80;;;;;;;7.63;100.00;102521.31;4988397;28;20042;-63
2022/03/27 07:29:40;;;;;;;0.40;0.40;;;;;;;7.87;100.00;102529.28;4989602;28;20034;-69
2022/03/27 07:32:06;;;;;;;0.65;0.65;;;;;;;7.85;100.00;102534.97;4972411;28;20548;-64
2022/03/27 07:34:33;;;;;;;0.65;0.30;;;;;;;7.78;100.00;102533.72;4984350;28;20513;-65
2022/03/27 07:36:59;;;;;;;0.57;0.57;;;;;;;7.85;100.00;102534.97;4989322;28;20113;-64
2022/03/27 07:39:25;;;;;;;0.10;0.10;;;;;;;7.84;100.00;102536.03;4972721;28;20034;-64
2022/03/27 07:41:50;;;;;;;0.50;0.50;;;;;;;7.88;100.00;102536.25;4984325;28;20101;-63
2022/03/27 07:44:16;;;;;;;4.38;1.63;;;;;;;7.94;100.00;102529.72;4989281;28;20030;-64
2022/03/27 07:46:41;;;;;;;1.75;0.68;;;;;;;7.92;100.00;102523.84;4988612;28;20046;-63
2022/03/27 07:49:08;;;;;;;0.43;0.40;;;;;;;8.00;100.00;102517.84;4981218;28;20042;-64
2022/03/27 07:51:34;;;;;;;1.08;0.63;;;;;;;8.08;100.00;102523.34;4972508;28;20038;-64
2022/03/27 07:54:00;;;;;;;1.02;0.93;;;;;;;8.18;100.00;102514.34;4985504;28;20042;-64
2022/03/27 07:56:26;;;;;;;0.55;0.50;;;;;;;8.28;100.00;102519.59;4987031;28;20061;-62
2022/03/27 07:58:52;;;;;;;1.13;0.82;;;;;;;8.33;100.00;102519.50;5003681;28;20053;-63
2022/03/27 08:01:18;;;;;;;1.02;1.02;;;;;;;8.39;100.00;102522.88;4984072;28;20030;-63
2022/03/27 08:03:43;;;;;;;0.68;0.63;;;;;;;8.75;100.00;102508.56;4986596;28;20983;-65
2022/03/27 08:06:09;;;;;;;4.55;0.93;;;;;;;8.64;100.00;102517.91;4989254;28;20065;-66
2022/03/27 08:08:34;;;;;;;0.88;0.85;;;;;;;8.79;100.00;102504.19;4985097;28;20046;-63
2022/03/27 08:11:00;;;;;;;0.45;0.35;;;;;;;8.75;100.00;102500.50;4981606;28;20038;-62
2022/03/27 08:13:26;;;;;;;2.30;1.48;;;;;;;8.73;100.00;102509.97;4989234;28;20192;-63
2022/03/27 08:15:52;;;;;;;0.63;0.63;;;;;;;8.79;100.00;102506.06;4985038;28;20035;-64
2022/03/27 08:18:17;;;;;;;0.93;0.93;;;;;;;8.82;100.00;102503.63;4986291;28;20451;-65
2022/03/27 08:20:43;;;;;;;0.60;0.60;;;;;;;8.85;100.00;102516.44;4993413;28;20099;-65
2022/03/27 08:23:08;;;;;;;0.85;0.85;;;;;;;9.15;100.00;102519.66;4997104;28;20045;-66
2022/03/27 08:28:20;;;;;;;0.45;0.45;;;;;;;9.02;100.00;102522.03;4970676;28;20034;-66
2022/03/27 08:30:46;;;;;;;2.22;0.88;;;;;;;9.05;100.00;102513.38;4983823;28;20477;-66
2022/03/27 08:33:13;;;;;;;0.95;0.85;;;;;;;9.09;100.00;102516.25;4979553;28;20036;-66
2022/03/27 08:35:41;;;;;;;2.13;1.38;;;;;;;9.12;100.00;102512.97;4976155;28;20482;-66
2022/03/27 08:38:08;;;;;;;1.38;1.15;;;;;;;9.23;100.00;102505.50;4978895;28;20030;-64
2022/03/27 08:40:36;;;;;;;3.35;0.93;;;;;;;9.22;100.00;102507.41;4988981;28;20049;-63
2022/03/27 08:43:01;;;;;;;1.27;0.93;;;;;;;9.25;100.00;102509.50;4989858;28;20438;-64
2022/03/27 08:45:27;;;;;;;4.72;1.08;;;;;;;9.32;100.00;102514.47;4986990;28;20113;-63
2022/03/27 08:47:54;;;;;;;2.38;1.48;;;;;;;9.41;100.00;102518.03;4989032;28;20034;-64
2022/03/27 08:50:26;;;;;;;0.88;0.88;;;;;;;9.41;100.00;102520.72;4967811;28;20035;-67
2022/03/27 08:52:54;;;;;;;;;;;;;;;9.45;100.00;102519.81;4977339;28;20037;-67
2022/03/27 08:55:29;;;;;;;1.30;0.60;;;;;;;9.77;99.42;102518.88;4986719;28;20024;-66
2022/03/27 08:57:57;;;;;;;0.63;0.57;;;;;;;9.75;99.14;102513.81;4989126;28;20044;-66
2022/03/27 09:00:31;;;;;;;1.05;0.75;;;;;;;9.91;98.31;102522.34;4980158;28;20038;-67
2022/03/27 09:02:59;;;;;;;2.63;1.85;;;;;;;9.87;98.52;102522.13;4990720;28;20069;-67
2022/03/27 09:05:25;;;;;;;5.85;2.92;;;;;;;9.86;98.11;102520.56;4985052;28;20508;-67
2022/03/27 09:07:52;;;;;;;1.23;0.98;;;;;;;9.87;97.81;102532.88;4960997;28;20121;-67
2022/03/27 09:10:18;;;;;;;2.67;1.50;;;;;;;9.97;97.54;102529.16;4964763;28;20034;-67
2022/03/27 09:12:44;;;;;;;2.08;0.75;;;;;;;10.12;96.54;102528.88;4972335;28;20031;-67
2022/03/27 09:15:11;;;;;;;2.53;1.55;;;;;;;10.51;95.79;102531.66;4977602;28;20508;-68
2022/03/27 09:18:04;;;;;;;1.77;1.55;;;;;;;11.05;93.06;102530.53;4982477;28;20121;-68
2022/03/27 09:20:39;;;;;;;12.10;3.25;;;;;;;11.35;92.05;102523.50;4982946;28;20404;-68
2022/03/27 09:23:30;;;;;;;17.92;2.88;;;;;;;11.37;90.76;102521.28;4986225;28;20035;-67
2022/03/27 09:26:17;;;;;;;2.53;2.33;;;;;;;11.44;90.61;102518.94;4991832;28;20037;-67
2022/03/27 09:28:45;;;;;;;11.70;2.05;;;;;;;11.74;89.38;102510.75;4978505;28;20042;-67
2022/03/27 09:31:14;;;;;;;4.20;2.75;;;;;;;12.00;88.59;102518.84;4976466;28;20051;-67
2022/03/27 09:33:57;;;;;;;2.42;1.45;;;;;;;12.16;87.86;102511.03;4973755;28;20084;-68
2022/03/27 09:36:31;;;;;;;1.23;1.05;;;;;;;12.22;87.19;102507.88;4978939;28;20117;-68
2022/03/27 09:39:08;;;;;;;4.63;2.28;;;;;;;12.97;83.41;102509.13;4981022;28;20065;-68
2022/03/27 09:41:41;;;;;;;4.07;1.58;;;;;;;12.91;82.66;102505.00;4992135;28;20033;-68
2022/03/27 09:44:13;;;;;;;2.30;0.80;;;;;;;13.28;82.11;102518.53;4993325;28;20062;-68
2022/03/27 09:47:04;;;;;;;1.13;1.13;;;;;;;13.33;81.29;102504.03;4993069;28;20064;-68
2022/03/27 09:49:35;;;;;;;2.15;1.67;;;;;;;13.78;78.95;102509.63;4983156;28;20035;-68
2022/03/27 09:52:10;;;;;;;1.05;1.05;;;;;;;13.70;79.19;102505.06;4993703;28;20042;-67
2022/03/27 09:55:03;;;;;;;0.80;0.65;;;;;;;14.22;76.30;102501.59;4985859;28;20042;-68
2022/03/27 09:57:30;;;;;;;2.45;1.30;;;;;;;14.14;76.92;102497.03;4987855;28;20068;-68
2022/03/27 09:59:58;;;;;;;0.57;0.57;;;;;;;14.03;76.87;102501.25;4987667;28;20026;-68
2022/03/27 10:02:30;;;;;;;3.60;0.80;;;;;;;14.02;77.05;102490.75;4988847;28;20034;-68
2022/03/27 10:05:10;;;;;;;1.15;1.05;;;;;;;14.23;76.17;102484.19;4986668;28;20041;-68
2022/03/27 10:07:41;;;;;;;0.47;0.47;;;;;;;14.31;75.89;102488.75;4971605;28;20508;-68
2022/03/27 10:10:27;;;;;;;0.30;0.30;;;;;;;14.53;75.03;102489.50;4983632;28;20037;-66
2022/03/27 10:12:54;;;;;;;0.65;0.60;;;;;;;14.75;74.02;102486.38;4989132;28;20118;-65
2022/03/27 10:15:25;;;;;;;1.20;0.70;;;;;;;14.80;74.04;102478.00;4975996;28;20050;-66
2022/03/27 10:17:55;;;;;;;2.10;1.30;;;;;;;15.20;72.51;102477.00;4987951;28;20229;-68
2022/03/27 10:20:22;;;;;;;3.83;1.10;;;;;;;15.11;72.63;102475.53;4989886;28;20388;-69
2022/03/27 10:23:02;;;;;;;1.08;0.50;;;;;;;15.00;72.48;102480.59;4959176;28;20031;-68
2022/03/27 10:25:37;;;;;;;0.85;0.73;;;;;;;15.46;71.21;102478.56;4986497;28;20512;-68
2022/03/27 10:28:04;;;;;;;2.83;1.10;;;;;;;15.55;69.84;102471.06;4979020;28;20395;-68
2022/03/27 10:30:30;;;;;;;0.30;0.30;;;;;;;15.37;70.60;102468.59;4973796;28;20037;-68
2022/03/27 10:32:57;;;;;;;1.02;0.88;;;;;;;15.54;71.50;102470.31;4982122;28;20042;-68
2022/03/27 10:35:45;;;;;;;1.05;0.70;;;;;;;15.60;69.86;102473.56;4980836;28;20033;-68
2022/03/27 10:38:13;;;;;;;0.38;0.38;;;;;;;15.62;70.78;102472.06;4988848;28;20022;-67
2022/03/27 10:41:01;;;;;;;0.55;0.47;;;;;;;15.65;70.00;102473.31;4986838;28;20031;-68
2022/03/27 10:43:44;;;;;;;2.28;1.38;;;;;;;15.69;70.31;102466.84;4989800;28;20421;-67
2022/03/27 10:46:13;;;;;;;1.23;0.63;;;;;;;15.72;69.11;102473.50;4984708;28;20481;-68
2022/03/27 10:48:42;;;;;;;1.08;0.70;;;;;;;15.79;69.62;102474.53;4980426;28;20039;-68
2022/03/27 10:51:09;;;;;;;0.52;0.52;;;;;;;15.75;70.25;102465.47;4974424;28;20042;-67
2022/03/27 10:53:36;;;;;;;0.90;0.68;;;;;;;16.08;70.16;102466.03;4969493;28;20026;-67
2022/03/27 10:56:03;;;;;;;0.85;0.85;;;;;;;16.24;68.83;102455.16;4968814;28;20049;-67
2022/03/27 10:58:31;;;;;;;0.73;0.45;;;;;;;16.48;67.41;102462.38;4967903;28;20054;-68
2022/03/27 11:01:03;;;;;;;1.73;1.63;;;;;;;16.62;66.54;102471.75;4973852;28;20041;-69
2022/03/27 11:03:52;;;;;;;2.42;0.95;;;;;;;16.86;64.79;102459.91;4984402;28;20072;-68
2022/03/27 11:06:24;;;;;;;0.60;0.45;;;;;;;16.69;65.96;102465.66;4971842;28;20121;-68
2022/03/27 11:08:51;;;;;;;1.10;1.02;;;;;;;16.68;66.13;102455.94;4984953;28;20043;-68
2022/03/27 11:11:35;;;;;;;1.73;1.33;;;;;;;16.78;66.00;102458.91;4973963;28;20104;-67
2022/03/27 11:14:02;;;;;;;6.78;1.30;;;;;;;16.81;66.04;102449.25;4978699;28;20038;-68
2022/03/27 11:16:27;;;;;;;1.17;0.70;;;;;;;17.10;64.96;102454.22;4978204;28;20610;-68
2022/03/27 11:18:53;;;;;;;1.15;0.93;;;;;;;17.26;64.15;102451.47;4975391;28;20030;-68
2022/03/27 11:21:27;;;;;;;0.55;0.55;;;;;;;17.24;63.84;102454.56;4978747;28;20121;-67
2022/03/27 11:24:15;;;;;;;0.52;0.45;;;;;;;17.28;64.01;102454.63;4966188;28;20048;-68
2022/03/27 11:26:41;;;;;;;1.63;0.70;;;;;;;17.49;62.23;102446.94;4966047;28;20038;-68
2022/03/27 11:29:25;;;;;;;0.43;0.28;;;;;;;17.60;62.06;102450.66;4972215;28;20034;-68
2022/03/27 11:32:08;;;;;;;1.00;0.47;;;;;;;17.40;64.24;102447.09;4975360;28;20030;-62
2022/03/27 11:34:38;;;;;;;0.20;0.20;;;;;;;17.40;63.57;102441.66;4968697;28;20039;-61
2022/03/27 11:37:12;;;;;;;0.50;0.47;;;;;;;17.35;63.27;102439.22;4967579;28;20030;-60
2022/03/27 11:39:39;;;;;;;1.58;0.60;;;;;;;17.32;63.60;102434.50;4968442;28;20038;-62
2022/03/27 11:42:31;;;;;;;0.90;0.60;;;;;;;17.34;64.16;102434.16;4969762;28;20037;-67